createdAt,value
2022-11-28T00:02:56.997Z,2.76
2022-11-28T00:08:06.463Z,2.77
2022-11-28T00:13:13.830Z,2.76
2022-11-28T00:18:20.753Z,2.72
2022-11-28T00:23:27.616Z,2.65
2022-11-28T00:28:34.543Z,2.60
2022-11-28T00:33:41.548Z,2.53
2022-11-28T00:38:49.355Z,2.48
2022-11-28T00:43:56.208Z,2.46
2022-11-28T00:49:03.340Z,2.45
2022-11-28T00:54:11.517Z,2.44
2022-11-28T00:59:18.429Z,2.46
2022-11-28T01:04:25.372Z,2.46
2022-11-28T01:09:32.340Z,2.45
2022-11-28T01:14:39.479Z,2.48
2022-11-28T01:19:46.653Z,2.49
2022-11-28T01:24:53.691Z,2.43
2022-11-28T01:30:00.574Z,2.39
2022-11-28T01:35:08.322Z,2.35
2022-11-28T01:40:16.347Z,2.28
2022-11-28T01:45:25.886Z,2.17
2022-11-28T01:50:34.942Z,2.05
2022-11-28T01:55:51.040Z,1.92
2022-11-28T02:00:58.141Z,1.85
2022-11-28T02:06:08.105Z,1.85
2022-11-28T02:11:51.270Z,1.86
2022-11-28T02:17:15.496Z,1.77
2022-11-28T02:22:26.522Z,1.66
2022-11-28T02:27:56.099Z,1.60
2022-11-28T02:33:15.911Z,1.59
2022-11-28T02:38:31.624Z,1.52
2022-11-28T02:43:46.567Z,1.48
2022-11-28T02:48:56.571Z,1.41
2022-11-28T02:54:05.892Z,1.32
2022-11-28T02:59:32.485Z,1.27
2022-11-28T03:04:51.230Z,1.26
2022-11-28T03:10:10.334Z,1.26
2022-11-28T03:15:22.014Z,1.20
2022-11-28T03:20:40.305Z,1.16
2022-11-28T03:25:51.113Z,1.09
2022-11-28T03:31:02.410Z,1.10
2022-11-28T03:36:16.482Z,1.10
2022-11-28T03:41:28.703Z,1.11
2022-11-28T03:46:39.536Z,1.10
2022-11-28T03:51:52.751Z,0.98
2022-11-28T03:57:06.554Z,0.91
2022-11-28T04:02:21.880Z,0.85
2022-11-28T04:07:35.793Z,0.72
2022-11-28T04:12:54.243Z,0.55
2022-11-28T04:18:09.031Z,0.48
2022-11-28T04:23:19.627Z,0.46
2022-11-28T04:28:31.083Z,0.38
2022-11-28T04:33:42.017Z,0.28
2022-11-28T04:38:56.486Z,0.23
2022-11-28T04:44:09.278Z,0.25
2022-11-28T04:49:16.547Z,0.33
2022-11-28T04:54:28.957Z,0.43
2022-11-28T04:59:36.538Z,0.46
2022-11-28T05:04:45.648Z,0.37
2022-11-28T05:09:52.560Z,0.26
2022-11-28T05:14:59.614Z,0.24
2022-11-28T05:20:08.222Z,0.28
2022-11-28T05:25:15.183Z,0.32
2022-11-28T05:30:22.188Z,0.41
2022-11-28T05:35:29.472Z,0.51
2022-11-28T05:40:36.365Z,0.56
2022-11-28T05:45:45.720Z,0.57
2022-11-28T05:50:53.097Z,0.56
2022-11-28T05:56:00.046Z,0.58
2022-11-28T06:01:14.444Z,0.59
2022-11-28T06:06:23.166Z,0.59
2022-11-28T06:11:31.830Z,0.59
2022-11-28T06:16:39.233Z,0.58
2022-11-28T06:21:46.421Z,0.53
2022-11-28T06:26:53.270Z,0.49
2022-11-28T06:32:00.393Z,0.43
2022-11-28T06:37:07.352Z,0.29
2022-11-28T06:42:16.297Z,0.07
2022-11-28T06:47:23.338Z,-0.07
2022-11-28T06:52:31.329Z,-0.05
2022-11-28T06:57:39.407Z,-0.01
2022-11-28T07:02:46.352Z,0.03
2022-11-28T07:07:54.755Z,0.06
2022-11-28T07:13:10.139Z,0.05
2022-11-28T07:18:17.243Z,-0.07
2022-11-28T07:23:24.656Z,-0.10
2022-11-28T07:28:33.481Z,-0.14
2022-11-28T07:33:41.291Z,-0.11
2022-11-28T07:38:49.168Z,-0.01
2022-11-28T07:43:59.377Z,-0.01
2022-11-28T07:49:06.801Z,0.06
2022-11-28T07:54:13.827Z,0.22
2022-11-28T07:59:21.014Z,0.33
2022-11-28T08:04:28.343Z,0.40
2022-11-28T08:09:36.026Z,0.41
2022-11-28T08:14:43.452Z,0.39
2022-11-28T08:19:52.792Z,0.39
2022-11-28T08:24:59.712Z,0.43
2022-11-28T08:30:08.422Z,0.47
2022-11-28T08:35:15.440Z,0.51
2022-11-28T08:40:22.426Z,0.53
2022-11-28T08:45:29.891Z,0.48
2022-11-28T08:50:37.046Z,0.48
2022-11-28T08:55:45.587Z,0.50
2022-11-28T09:00:51.128Z,0.54
2022-11-28T09:06:03.296Z,0.56
2022-11-28T09:11:12.268Z,0.62
2022-11-28T09:16:19.703Z,0.76
2022-11-28T09:21:27.250Z,0.91
2022-11-28T09:26:34.556Z,1.11
2022-11-28T09:31:47.367Z,1.35
2022-11-28T09:37:00.841Z,1.55
2022-11-28T09:42:18.930Z,1.74
2022-11-28T09:47:32.805Z,1.91
2022-11-28T09:52:46.520Z,2.08
2022-11-28T09:57:54.866Z,2.41
2022-11-28T10:03:30.708Z,2.74
2022-11-28T10:08:47.199Z,3.25
2022-11-28T10:14:08.995Z,4.16
2022-11-28T10:19:52.256Z,4.57
2022-11-28T10:24:53.948Z,4.71
2022-11-28T10:30:04.245Z,4.63
2022-11-28T10:35:27.910Z,4.60
2022-11-28T10:40:45.761Z,4.80
2022-11-28T10:46:07.683Z,5.19
2022-11-28T10:51:33.380Z,5.54
2022-11-28T10:56:49.314Z,5.87
2022-11-28T11:01:58.213Z,6.18
2022-11-28T11:07:20.945Z,6.39
2022-11-28T11:12:35.911Z,6.48
2022-11-28T11:17:43.152Z,6.38
2022-11-28T11:22:57.915Z,6.28
2022-11-28T11:28:27.114Z,6.11
2022-11-28T11:33:37.691Z,5.60
2022-11-28T11:38:45.074Z,5.10
2022-11-28T11:43:52.233Z,4.71
2022-11-28T11:48:59.675Z,4.48
2022-11-28T11:54:17.094Z,4.36
2022-11-28T11:59:31.830Z,4.23
2022-11-28T12:04:47.907Z,4.13
2022-11-28T12:10:04.289Z,4.06
2022-11-28T12:15:22.644Z,4.06
2022-11-28T12:20:55.406Z,4.05
2022-11-28T12:26:12.530Z,4.01
2022-11-28T12:31:29.673Z,3.96
2022-11-28T12:36:43.923Z,3.94
2022-11-28T12:42:11.612Z,3.94
2022-11-28T12:47:26.386Z,3.89
2022-11-28T12:52:40.925Z,3.86
2022-11-28T12:57:54.466Z,3.82
2022-11-28T13:03:12.014Z,3.83
2022-11-28T13:08:33.983Z,3.81
2022-11-28T13:13:47.941Z,3.76
2022-11-28T13:19:02.205Z,3.69
2022-11-28T13:24:20.987Z,3.70
2022-11-28T13:29:31.668Z,3.73
2022-11-28T13:34:39.892Z,3.71
2022-11-28T13:39:51.608Z,3.65
2022-11-28T13:45:03.005Z,3.58
2022-11-28T13:50:34.836Z,3.52
2022-11-28T13:55:46.756Z,3.52
2022-11-28T14:01:21.501Z,3.52
2022-11-28T14:06:31.780Z,3.53
2022-11-28T14:11:55.447Z,3.51
2022-11-28T14:17:15.003Z,3.49
2022-11-28T14:22:42.737Z,3.47
2022-11-28T14:27:54.953Z,3.47
2022-11-28T14:33:06.013Z,3.44
2022-11-28T14:38:40.096Z,3.39
2022-11-28T14:43:48.253Z,3.37
2022-11-28T14:49:27.543Z,3.39
2022-11-28T14:54:36.665Z,3.41
2022-11-28T14:59:44.741Z,3.41
2022-11-28T15:04:55.517Z,3.36
2022-11-28T15:10:10.154Z,3.31
2022-11-28T15:15:19.291Z,3.30
2022-11-28T15:20:33.452Z,3.31
2022-11-28T15:25:41.120Z,3.30
2022-11-28T15:30:51.387Z,3.25
2022-11-28T15:36:04.409Z,3.23
2022-11-28T15:41:12.243Z,3.24
2022-11-28T15:46:26.542Z,3.25
2022-11-28T15:51:37.595Z,3.21
2022-11-28T15:56:59.325Z,3.16
2022-11-28T16:02:17.380Z,3.14
2022-11-28T16:07:26.033Z,3.13
2022-11-28T16:12:33.239Z,3.14
2022-11-28T16:17:43.094Z,3.10
2022-11-28T16:22:50.203Z,3.07
2022-11-28T16:27:57.687Z,3.04
2022-11-28T16:33:24.999Z,3.01
2022-11-28T16:38:33.166Z,2.98
2022-11-28T16:43:41.954Z,2.95
2022-11-28T16:48:54.928Z,2.90
2022-11-28T16:54:22.207Z,2.89
2022-11-28T16:59:29.236Z,2.89
2022-11-28T17:04:36.120Z,2.89
2022-11-28T17:09:43.703Z,2.89
2022-11-28T17:14:50.760Z,2.86
2022-11-28T17:19:57.902Z,2.82
2022-11-28T17:25:09.024Z,2.79
2022-11-28T17:30:19.522Z,2.78
2022-11-28T17:35:31.038Z,2.79
2022-11-28T17:40:38.894Z,2.78
2022-11-28T17:45:47.589Z,2.76
2022-11-28T17:50:57.278Z,2.75
2022-11-28T17:56:04.432Z,2.72
2022-11-28T18:01:15.794Z,2.72
2022-11-28T18:06:23.856Z,2.74
2022-11-28T18:11:31.581Z,2.72
2022-11-28T18:16:43.073Z,2.66
2022-11-28T18:21:51.241Z,2.63
2022-11-28T18:26:58.851Z,2.61
2022-11-28T18:32:07.407Z,2.61
2022-11-28T18:37:14.482Z,2.57
2022-11-28T18:42:21.905Z,2.53
2022-11-28T18:47:29.605Z,2.50
2022-11-28T18:52:38.838Z,2.51
2022-11-28T18:57:46.066Z,2.48
2022-11-28T19:02:53.374Z,2.47
2022-11-28T19:08:01.076Z,2.45
2022-11-28T19:13:09.069Z,2.46
2022-11-28T19:18:16.452Z,2.46
2022-11-28T19:23:23.670Z,2.45
2022-11-28T19:28:30.903Z,2.45
2022-11-28T19:33:38.309Z,2.43
2022-11-28T19:38:45.850Z,2.41
2022-11-28T19:43:53.277Z,2.42
2022-11-28T19:49:00.705Z,2.42
2022-11-28T19:54:08.416Z,2.40
2022-11-28T19:59:16.995Z,2.37
2022-11-28T20:04:24.266Z,2.35
2022-11-28T20:09:35.967Z,2.34
2022-11-28T20:14:43.838Z,2.33
2022-11-28T20:19:51.651Z,2.32
2022-11-28T20:24:58.920Z,2.29
2022-11-28T20:30:09.837Z,2.29
2022-11-28T20:35:18.883Z,2.29
2022-11-28T20:40:26.068Z,2.29
2022-11-28T20:45:33.226Z,2.27
2022-11-28T20:50:43.987Z,2.23
2022-11-28T20:55:50.967Z,2.21
2022-11-28T21:00:58.195Z,2.20
2022-11-28T21:06:05.209Z,2.19
2022-11-28T21:11:30.578Z,2.17
2022-11-28T21:16:41.156Z,2.14
2022-11-28T21:21:48.486Z,2.13
2022-11-28T21:26:55.729Z,2.15
2022-11-28T21:32:03.148Z,2.16
2022-11-28T21:37:10.574Z,2.16
2022-11-28T21:42:20.757Z,2.13
2022-11-28T21:47:28.186Z,2.10
2022-11-28T21:52:35.283Z,2.10
2022-11-28T21:57:43.014Z,2.09
2022-11-28T22:02:49.975Z,2.08
2022-11-28T22:07:57.549Z,2.06
2022-11-28T22:13:04.570Z,2.02
2022-11-28T22:18:12.732Z,2.01
2022-11-28T22:23:19.993Z,2.00
2022-11-28T22:28:27.802Z,2.01
2022-11-28T22:33:34.758Z,2.00
2022-11-28T22:38:42.655Z,1.99
2022-11-28T22:43:48.412Z,1.97
2022-11-28T22:48:55.335Z,1.96
2022-11-28T22:54:04.081Z,1.97
2022-11-28T22:59:15.314Z,1.97
2022-11-28T23:04:22.434Z,1.95
2022-11-28T23:09:29.341Z,1.95
2022-11-28T23:14:36.625Z,1.94
2022-11-28T23:19:43.709Z,1.96
2022-11-28T23:24:50.753Z,1.98
2022-11-28T23:29:57.921Z,1.98
2022-11-28T23:35:05.773Z,1.97
2022-11-28T23:40:14.274Z,1.97
2022-11-28T23:45:21.375Z,1.99
2022-11-28T23:50:28.402Z,2.00
2022-11-28T23:55:37.335Z,2.01
